createdAt,value
2022-12-08T00:00:52.215Z,0.00
2022-12-08T00:01:52.327Z,0.00
2022-12-08T00:02:52.318Z,0.00
2022-12-08T00:03:52.241Z,0.00
2022-12-08T00:04:52.178Z,0.00
2022-12-08T00:05:52.196Z,0.00
2022-12-08T00:06:52.155Z,0.00
2022-12-08T00:07:52.249Z,0.00
2022-12-08T00:08:52.125Z,0.00
2022-12-08T00:09:52.114Z,0.00
2022-12-08T00:10:52.132Z,0.00
2022-12-08T00:11:52.097Z,0.00
2022-12-08T00:12:52.082Z,0.00
2022-12-08T00:13:52.068Z,0.00
2022-12-08T00:14:52.087Z,0.00
2022-12-08T00:15:52.046Z,0.00
2022-12-08T00:16:52.123Z,0.00
2022-12-08T00:17:52.028Z,0.00
2022-12-08T00:18:52.035Z,0.00
2022-12-08T00:19:52.051Z,0.00
2022-12-08T00:20:52.039Z,0.00
2022-12-08T00:21:52.015Z,0.00
2022-12-08T00:22:51.979Z,0.00
2022-12-08T00:23:51.966Z,0.00
2022-12-08T00:24:51.947Z,0.00
2022-12-08T00:25:51.946Z,0.00
2022-12-08T00:26:51.949Z,0.00
2022-12-08T00:27:51.919Z,0.00
2022-12-08T00:28:51.905Z,0.00
2022-12-08T00:29:51.892Z,0.00
2022-12-08T00:30:51.885Z,0.00
2022-12-08T00:31:51.980Z,0.00
2022-12-08T00:32:51.864Z,0.00
2022-12-08T00:33:51.847Z,0.00
2022-12-08T00:34:51.860Z,0.00
2022-12-08T00:35:51.843Z,0.00
2022-12-08T00:36:51.829Z,0.00
2022-12-08T00:37:56.151Z,0.00
2022-12-08T00:38:52.796Z,0.00
2022-12-08T00:39:51.780Z,0.00
2022-12-08T00:40:51.793Z,0.00
2022-12-08T00:41:51.783Z,0.00
2022-12-08T00:42:51.754Z,0.00
2022-12-08T00:43:51.733Z,0.00
2022-12-08T00:44:51.739Z,0.00
2022-12-08T00:45:51.790Z,0.00
2022-12-08T00:46:51.703Z,0.00
2022-12-08T00:47:51.730Z,0.00
2022-12-08T00:48:51.683Z,0.00
2022-12-08T00:49:51.705Z,0.00
2022-12-08T00:50:51.659Z,0.00
2022-12-08T00:51:51.673Z,0.00
2022-12-08T00:52:51.632Z,0.00
2022-12-08T00:53:51.643Z,0.00
2022-12-08T00:54:51.678Z,0.00
2022-12-08T00:55:51.597Z,0.00
2022-12-08T00:56:51.624Z,0.00
2022-12-08T00:57:51.578Z,0.00
2022-12-08T00:58:51.579Z,0.00
2022-12-08T00:59:51.572Z,0.00
2022-12-08T01:00:51.707Z,0.00
2022-12-08T01:01:51.556Z,0.00
2022-12-08T01:02:51.539Z,0.00
2022-12-08T01:03:51.585Z,0.00
2022-12-08T01:04:51.501Z,0.00
2022-12-08T01:05:51.492Z,0.00
2022-12-08T01:06:51.525Z,0.00
2022-12-08T01:07:51.513Z,0.00
2022-12-08T01:08:51.465Z,0.00
2022-12-08T01:09:51.438Z,0.00
2022-12-08T01:10:51.457Z,0.00
2022-12-08T01:11:51.428Z,0.00
2022-12-08T01:12:51.420Z,0.00
2022-12-08T01:13:51.402Z,0.00
2022-12-08T01:14:51.396Z,0.00
2022-12-08T01:15:51.407Z,0.00
2022-12-08T01:16:51.475Z,0.00
2022-12-08T01:17:51.353Z,0.00
2022-12-08T01:18:51.348Z,0.00
2022-12-08T01:19:51.330Z,0.00
2022-12-08T01:20:51.347Z,0.00
2022-12-08T01:21:51.313Z,0.00
2022-12-08T01:22:51.308Z,0.00
2022-12-08T01:23:51.310Z,0.00
2022-12-08T01:24:51.302Z,0.00
2022-12-08T01:25:51.355Z,0.00
2022-12-08T01:26:51.265Z,0.00
2022-12-08T01:27:51.247Z,0.00
2022-12-08T01:28:51.236Z,0.00
2022-12-08T01:29:51.214Z,0.00
2022-12-08T01:30:51.268Z,0.00
2022-12-08T01:31:51.199Z,0.00
2022-12-08T01:32:59.264Z,0.00
2022-12-08T01:33:51.186Z,0.00
2022-12-08T01:34:51.206Z,0.00
2022-12-08T01:35:51.209Z,0.00
2022-12-08T01:36:51.153Z,0.00
2022-12-08T01:37:51.176Z,0.00
2022-12-08T01:38:51.127Z,0.00
2022-12-08T01:39:51.129Z,0.00
2022-12-08T01:40:51.100Z,0.00
2022-12-08T01:41:51.117Z,0.00
2022-12-08T01:42:51.092Z,0.00
2022-12-08T01:43:51.096Z,0.00
2022-12-08T01:44:51.055Z,0.00
2022-12-08T01:45:51.098Z,0.00
2022-12-08T01:46:51.073Z,0.00
2022-12-08T01:47:51.078Z,0.00
2022-12-08T01:48:51.015Z,0.00
2022-12-08T01:49:50.999Z,0.00
2022-12-08T01:50:50.996Z,0.00
2022-12-08T01:51:50.997Z,0.00
2022-12-08T01:52:50.973Z,0.00
2022-12-08T01:53:50.962Z,0.00
2022-12-08T01:54:50.969Z,0.00
2022-12-08T01:55:50.951Z,0.00
2022-12-08T01:56:50.941Z,0.00
2022-12-08T01:57:50.914Z,0.00
2022-12-08T01:58:50.892Z,0.00
2022-12-08T01:59:50.947Z,0.00
2022-12-08T02:00:50.873Z,0.00
2022-12-08T02:01:51.005Z,0.00
2022-12-08T02:02:50.999Z,0.00
2022-12-08T02:03:50.848Z,0.00
2022-12-08T02:04:50.845Z,0.00
2022-12-08T02:05:51.705Z,0.00
2022-12-08T02:06:50.823Z,0.00
2022-12-08T02:07:50.918Z,0.00
2022-12-08T02:08:50.851Z,0.00
2022-12-08T02:09:50.803Z,0.00
2022-12-08T02:10:50.773Z,0.00
2022-12-08T02:11:50.791Z,0.00
2022-12-08T02:12:50.740Z,0.00
2022-12-08T02:13:50.745Z,0.00
2022-12-08T02:14:50.748Z,0.00
2022-12-08T02:15:50.750Z,0.00
2022-12-08T02:16:50.705Z,0.00
2022-12-08T02:17:50.681Z,0.00
2022-12-08T02:19:14.749Z,0.00
2022-12-08T02:19:51.694Z,0.00
2022-12-08T02:20:50.654Z,0.00
2022-12-08T02:21:50.668Z,0.00
2022-12-08T02:22:50.630Z,0.00
2022-12-08T02:23:50.653Z,0.00
2022-12-08T02:24:50.616Z,0.00
2022-12-08T02:25:50.626Z,0.00
2022-12-08T02:26:50.584Z,0.00
2022-12-08T02:27:50.602Z,0.00
2022-12-08T02:28:50.590Z,0.00
2022-12-08T02:29:50.578Z,0.00
2022-12-08T02:30:50.564Z,0.00
2022-12-08T02:31:50.527Z,0.00
2022-12-08T02:32:50.521Z,0.00
2022-12-08T02:33:50.577Z,0.00
2022-12-08T02:34:50.530Z,0.00
2022-12-08T02:35:50.508Z,0.00
2022-12-08T02:36:50.476Z,0.00
2022-12-08T02:37:50.465Z,0.00
2022-12-08T02:38:50.477Z,0.00
2022-12-08T02:39:50.446Z,0.00
2022-12-08T02:40:50.439Z,0.00
2022-12-08T02:41:50.446Z,0.00
2022-12-08T02:42:50.430Z,0.00
2022-12-08T02:43:50.426Z,0.00
2022-12-08T02:44:50.442Z,0.00
2022-12-08T02:45:50.485Z,0.00
2022-12-08T02:46:50.370Z,0.00
2022-12-08T02:47:50.362Z,0.00
2022-12-08T02:48:50.355Z,0.00
2022-12-08T02:49:50.321Z,0.00
2022-12-08T02:50:50.348Z,0.00
2022-12-08T02:51:50.315Z,0.00
2022-12-08T02:52:50.303Z,0.00
2022-12-08T02:53:50.307Z,0.00
2022-12-08T02:54:50.267Z,0.00
2022-12-08T02:55:50.272Z,0.00
2022-12-08T02:56:50.246Z,0.00
2022-12-08T02:57:50.254Z,0.00
2022-12-08T02:58:50.264Z,0.00
2022-12-08T02:59:50.258Z,0.00
2022-12-08T03:00:50.232Z,0.00
2022-12-08T03:01:50.238Z,0.00
2022-12-08T03:02:50.375Z,0.00
2022-12-08T03:03:50.199Z,0.00
2022-12-08T03:04:50.171Z,0.00
2022-12-08T03:05:50.224Z,0.00
2022-12-08T03:06:50.161Z,0.00
2022-12-08T03:07:50.225Z,0.00
2022-12-08T03:08:50.150Z,0.00
2022-12-08T03:09:50.114Z,0.00
2022-12-08T03:10:50.105Z,0.00
2022-12-08T03:11:50.144Z,0.00
2022-12-08T03:12:50.069Z,0.00
2022-12-08T03:13:50.056Z,0.00
2022-12-08T03:14:50.089Z,0.00
2022-12-08T03:15:50.181Z,0.00
2022-12-08T03:16:50.039Z,0.00
2022-12-08T03:17:50.014Z,0.00
2022-12-08T03:18:50.024Z,0.00
2022-12-08T03:19:50.071Z,0.00
2022-12-08T03:20:49.988Z,0.00
2022-12-08T03:21:49.975Z,0.00
2022-12-08T03:22:49.970Z,0.00
2022-12-08T03:23:49.947Z,0.00
2022-12-08T03:24:49.933Z,0.00
2022-12-08T03:25:49.966Z,0.00
2022-12-08T03:26:49.930Z,0.00
2022-12-08T03:27:49.917Z,0.00
2022-12-08T03:28:49.916Z,0.00
2022-12-08T03:29:49.887Z,0.00
2022-12-08T03:30:50.088Z,0.00
2022-12-08T03:31:49.894Z,0.00
2022-12-08T03:32:49.856Z,0.00
2022-12-08T03:33:49.841Z,0.00
2022-12-08T03:34:49.863Z,0.00
2022-12-08T03:35:49.821Z,0.00
2022-12-08T03:36:49.810Z,0.00
2022-12-08T03:37:49.794Z,0.00
2022-12-08T03:38:49.785Z,0.00
2022-12-08T03:39:49.880Z,0.00
2022-12-08T03:40:49.763Z,0.00
2022-12-08T03:41:49.749Z,0.00
2022-12-08T03:42:49.776Z,0.00
2022-12-08T03:43:49.734Z,0.00
2022-12-08T03:44:49.730Z,0.00
2022-12-08T03:45:49.700Z,0.00
2022-12-08T03:46:49.732Z,0.00
2022-12-08T03:47:49.701Z,0.00
2022-12-08T03:48:49.676Z,0.00
2022-12-08T03:49:49.668Z,0.00
2022-12-08T03:50:49.669Z,0.00
2022-12-08T03:51:49.638Z,0.00
2022-12-08T03:52:49.658Z,0.00
2022-12-08T03:53:49.614Z,0.00
2022-12-08T03:54:49.608Z,0.00
2022-12-08T03:55:49.594Z,0.00
2022-12-08T03:56:49.611Z,0.00
2022-12-08T03:57:49.595Z,0.00
2022-12-08T03:58:49.560Z,0.00
2022-12-08T03:59:49.565Z,0.00
2022-12-08T04:00:49.571Z,0.00
2022-12-08T04:01:49.650Z,0.00
2022-12-08T04:02:49.604Z,0.00
2022-12-08T04:03:49.532Z,0.00
2022-12-08T04:04:49.503Z,0.00
2022-12-08T04:05:49.497Z,0.00
2022-12-08T04:06:49.501Z,0.00
2022-12-08T04:07:49.493Z,0.00
2022-12-08T04:08:49.444Z,0.00
2022-12-08T04:09:49.439Z,0.00
2022-12-08T04:10:49.428Z,0.00
2022-12-08T04:11:49.453Z,0.00
2022-12-08T04:12:49.466Z,0.00
2022-12-08T04:13:49.403Z,0.00
2022-12-08T04:14:49.387Z,0.00
2022-12-08T04:15:49.482Z,0.00
2022-12-08T04:16:49.383Z,0.00
2022-12-08T04:17:49.389Z,0.00
2022-12-08T04:18:49.352Z,0.00
2022-12-08T04:19:49.353Z,0.00
2022-12-08T04:20:49.320Z,0.00
2022-12-08T04:21:49.384Z,0.00
2022-12-08T04:22:49.328Z,0.00
2022-12-08T04:23:49.285Z,0.00
2022-12-08T04:24:49.276Z,0.00
2022-12-08T04:25:49.255Z,0.00
2022-12-08T04:26:49.314Z,0.00
2022-12-08T04:27:49.265Z,0.00
2022-12-08T04:28:49.247Z,0.00
2022-12-08T04:29:49.215Z,0.00
2022-12-08T04:30:49.210Z,0.00
2022-12-08T04:31:49.303Z,0.00
2022-12-08T04:32:49.178Z,0.00
2022-12-08T04:33:49.174Z,0.00
2022-12-08T04:34:49.158Z,0.00
2022-12-08T04:35:49.170Z,0.00
2022-12-08T04:36:49.221Z,0.00
2022-12-08T04:37:49.118Z,0.00
2022-12-08T04:38:49.113Z,0.00
2022-12-08T04:39:49.114Z,0.00
2022-12-08T04:40:49.091Z,0.00
2022-12-08T04:41:49.092Z,0.00
2022-12-08T04:42:49.099Z,0.00
2022-12-08T04:43:49.096Z,0.00
2022-12-08T04:44:49.053Z,0.00
2022-12-08T04:45:49.028Z,0.00
2022-12-08T04:46:49.096Z,0.00
2022-12-08T04:47:49.035Z,0.00
2022-12-08T04:48:48.993Z,0.00
2022-12-08T04:49:48.993Z,0.00
2022-12-08T04:50:48.979Z,0.00
2022-12-08T04:51:49.097Z,0.00
2022-12-08T04:52:48.996Z,0.00
2022-12-08T04:53:48.953Z,0.00
2022-12-08T04:54:48.930Z,0.00
2022-12-08T04:55:48.924Z,0.00
2022-12-08T04:56:48.911Z,0.00
2022-12-08T04:57:48.958Z,0.00
2022-12-08T04:58:48.934Z,0.00
2022-12-08T04:59:48.909Z,0.00
2022-12-08T05:00:48.874Z,0.00
2022-12-08T05:01:49.110Z,0.00
2022-12-08T05:02:48.988Z,0.00
2022-12-08T05:03:48.861Z,0.00
2022-12-08T05:04:48.833Z,0.00
2022-12-08T05:05:48.823Z,0.00
2022-12-08T05:06:48.812Z,0.00
2022-12-08T05:07:48.846Z,0.00
2022-12-08T05:08:48.808Z,0.00
2022-12-08T05:09:48.771Z,0.00
2022-12-08T05:10:48.757Z,0.00
2022-12-08T05:11:49.374Z,0.00
2022-12-08T05:12:48.733Z,0.00
2022-12-08T05:13:48.794Z,0.00
2022-12-08T05:14:48.714Z,0.00
2022-12-08T05:15:48.839Z,0.00
2022-12-08T05:16:48.785Z,0.00
2022-12-08T05:17:48.723Z,0.00
2022-12-08T05:18:48.658Z,0.00
2022-12-08T05:19:48.655Z,0.00
2022-12-08T05:20:48.688Z,0.00
2022-12-08T05:21:48.639Z,0.00
2022-12-08T05:22:48.633Z,0.00
2022-12-08T05:23:48.745Z,0.00
2022-12-08T05:24:48.693Z,0.00
2022-12-08T05:25:48.610Z,0.00
2022-12-08T05:26:48.581Z,0.00
2022-12-08T05:27:48.583Z,0.00
2022-12-08T05:28:48.589Z,0.00
2022-12-08T05:29:48.538Z,0.00
2022-12-08T05:30:48.553Z,0.00
2022-12-08T05:31:48.630Z,0.00
2022-12-08T05:32:48.511Z,0.00
2022-12-08T05:33:48.514Z,0.00
2022-12-08T05:34:48.484Z,0.00
2022-12-08T05:35:48.475Z,0.00
2022-12-08T05:36:48.455Z,0.00
2022-12-08T05:37:48.450Z,0.00
2022-12-08T05:38:48.457Z,0.00
2022-12-08T05:39:48.490Z,0.00
2022-12-08T05:40:48.417Z,0.00
2022-12-08T05:41:48.404Z,0.00
2022-12-08T05:42:48.417Z,0.00
2022-12-08T05:43:48.390Z,0.00
2022-12-08T05:44:48.383Z,0.00
2022-12-08T05:45:48.430Z,0.00
2022-12-08T05:46:48.369Z,0.00
2022-12-08T05:47:48.404Z,0.00
2022-12-08T05:48:48.328Z,0.00
2022-12-08T05:49:48.318Z,0.00
2022-12-08T05:50:48.311Z,0.00
2022-12-08T05:51:48.326Z,0.00
2022-12-08T05:52:48.284Z,0.00
2022-12-08T05:53:48.298Z,0.00
2022-12-08T05:54:48.255Z,0.00
2022-12-08T05:55:48.273Z,0.00
2022-12-08T05:56:48.266Z,0.00
2022-12-08T05:57:48.232Z,0.00
2022-12-08T05:58:48.208Z,0.00
2022-12-08T05:59:48.208Z,0.00
2022-12-08T06:00:48.195Z,0.00
2022-12-08T06:01:48.265Z,0.00
2022-12-08T06:02:48.272Z,0.00
2022-12-08T06:03:48.161Z,0.00
2022-12-08T06:04:48.148Z,0.00
2022-12-08T06:05:48.146Z,0.00
2022-12-08T06:06:48.139Z,0.00
2022-12-08T06:07:48.238Z,0.00
2022-12-08T06:08:48.106Z,0.00
2022-12-08T06:09:48.190Z,0.00
2022-12-08T06:10:48.079Z,0.00
2022-12-08T06:11:48.126Z,0.00
2022-12-08T06:12:48.068Z,0.00
2022-12-08T06:13:48.097Z,0.00
2022-12-08T06:14:48.056Z,0.00
2022-12-08T06:15:48.049Z,0.00
2022-12-08T06:16:48.064Z,0.00
2022-12-08T06:17:48.000Z,0.00
2022-12-08T06:18:48.014Z,0.00
2022-12-08T06:19:47.979Z,0.00
2022-12-08T06:20:47.985Z,0.00
2022-12-08T06:21:47.956Z,0.00
2022-12-08T06:22:47.953Z,0.00
2022-12-08T06:23:47.965Z,0.00
2022-12-08T06:24:47.932Z,0.00
2022-12-08T06:25:47.916Z,0.00
2022-12-08T06:26:47.907Z,0.00
2022-12-08T06:27:47.914Z,0.00
2022-12-08T06:28:47.898Z,0.00
2022-12-08T06:29:47.869Z,0.00
2022-12-08T06:30:47.864Z,0.00
2022-12-08T06:31:47.901Z,0.00
2022-12-08T06:32:47.875Z,0.00
2022-12-08T06:33:47.840Z,0.00
2022-12-08T06:34:47.945Z,0.00
2022-12-08T06:35:47.808Z,0.00
2022-12-08T06:36:47.811Z,0.00
2022-12-08T06:37:47.780Z,0.00
2022-12-08T06:38:47.804Z,0.00
2022-12-08T06:39:47.762Z,0.00
2022-12-08T06:40:47.746Z,4.00
2022-12-08T06:41:47.784Z,0.00
2022-12-08T06:42:47.728Z,0.00
2022-12-08T06:43:47.766Z,4.00
2022-12-08T06:44:47.722Z,4.00
2022-12-08T06:45:47.782Z,4.00
2022-12-08T06:46:47.682Z,4.00
2022-12-08T06:47:47.678Z,4.00
2022-12-08T06:48:47.659Z,4.00
2022-12-08T06:49:47.662Z,8.00
2022-12-08T06:50:47.637Z,8.00
2022-12-08T06:51:47.622Z,8.00
2022-12-08T06:52:58.223Z,12.00
2022-12-08T06:53:48.594Z,12.00
2022-12-08T06:54:47.624Z,16.00
2022-12-08T06:56:03.078Z,16.00
2022-12-08T06:56:48.563Z,16.00
2022-12-08T06:57:47.884Z,20.00
2022-12-08T06:58:52.386Z,24.00
2022-12-08T06:59:49.223Z,24.00
2022-12-08T07:00:47.648Z,28.00
2022-12-08T07:01:47.598Z,32.00
2022-12-08T07:02:47.805Z,32.00
2022-12-08T07:03:47.520Z,40.00
2022-12-08T07:04:47.480Z,40.00
2022-12-08T07:10:33.408Z,64.00
2022-12-08T07:11:33.431Z,68.00
2022-12-08T07:12:33.655Z,72.00
2022-12-08T07:13:33.387Z,80.00
2022-12-08T07:14:33.372Z,84.00
2022-12-08T07:15:33.358Z,96.00
2022-12-08T07:16:33.384Z,108.00
2022-12-08T07:17:33.356Z,112.00
2022-12-08T07:18:33.585Z,120.00
2022-12-08T07:19:33.332Z,128.00
2022-12-08T07:20:33.291Z,136.00
2022-12-08T07:21:33.557Z,136.00
2022-12-08T07:23:44.524Z,160.00
2022-12-08T07:24:44.702Z,172.00
2022-12-08T07:26:54.217Z,180.00
2022-12-08T07:27:54.208Z,188.00
2022-12-08T07:28:54.215Z,196.00
2022-12-08T07:29:54.187Z,196.00
2022-12-08T07:30:54.250Z,192.00
2022-12-08T07:31:54.163Z,180.00
2022-12-08T07:33:02.228Z,184.00
2022-12-08T07:33:54.182Z,184.00
2022-12-08T07:34:54.137Z,180.00
2022-12-08T07:35:54.146Z,180.00
2022-12-08T07:36:54.135Z,200.00
2022-12-08T07:37:54.106Z,212.00
2022-12-08T07:38:54.121Z,224.00
2022-12-08T07:39:54.088Z,252.00
2022-12-08T07:40:54.113Z,308.00
2022-12-08T07:41:54.094Z,364.00
2022-12-08T07:42:54.050Z,372.00
2022-12-08T07:43:54.043Z,384.00
2022-12-08T07:44:54.024Z,408.00
2022-12-08T07:45:54.120Z,420.00
2022-12-08T07:46:54.015Z,400.00
2022-12-08T07:47:53.993Z,400.00
2022-12-08T07:48:53.980Z,456.00
2022-12-08T07:49:53.981Z,536.00
2022-12-08T07:50:53.958Z,572.00
2022-12-08T07:51:53.966Z,612.00
2022-12-08T07:52:53.936Z,632.00
2022-12-08T07:53:55.045Z,620.00
2022-12-08T07:54:53.910Z,636.00
2022-12-08T07:55:53.914Z,608.00
2022-12-08T07:56:53.893Z,604.00
2022-12-08T07:57:53.909Z,652.00
2022-12-08T07:58:53.903Z,720.00
2022-12-08T07:59:53.879Z,736.00
2022-12-08T08:00:54.032Z,664.00
2022-12-08T08:02:13.496Z,624.00
2022-12-08T08:02:54.974Z,656.00
2022-12-08T08:03:53.851Z,708.00
2022-12-08T08:04:54.030Z,744.00
2022-12-08T08:05:53.801Z,744.00
2022-12-08T08:06:53.814Z,772.00
2022-12-08T08:07:53.892Z,824.00
2022-12-08T08:08:53.756Z,832.00
2022-12-08T08:09:53.776Z,836.00
2022-12-08T08:10:53.733Z,884.00
2022-12-08T08:12:22.172Z,932.00
2022-12-08T08:12:54.712Z,976.00
2022-12-08T08:13:53.732Z,1024.00
2022-12-08T08:14:53.699Z,1048.00
2022-12-08T08:15:53.829Z,1056.00
2022-12-08T08:16:53.953Z,1108.00
2022-12-08T08:17:53.670Z,1092.00
2022-12-08T08:18:53.681Z,1048.00
2022-12-08T08:19:53.640Z,1076.00
2022-12-08T08:20:53.629Z,1088.00
2022-12-08T08:21:53.609Z,1092.00
2022-12-08T08:22:53.646Z,1048.00
2022-12-08T08:23:53.597Z,1020.00
2022-12-08T08:24:53.575Z,1048.00
2022-12-08T08:25:53.563Z,1072.00
2022-12-08T08:26:53.582Z,1100.00
2022-12-08T08:27:53.538Z,1132.00
2022-12-08T08:28:53.531Z,1152.00
2022-12-08T08:29:53.524Z,1144.00
2022-12-08T08:30:53.624Z,1084.00
2022-12-08T08:31:53.502Z,972.00
2022-12-08T08:32:53.507Z,840.00
2022-12-08T08:33:53.475Z,844.00
2022-12-08T08:34:53.482Z,976.00
2022-12-08T08:35:53.472Z,1180.00
2022-12-08T08:36:53.523Z,1328.00
2022-12-08T08:37:53.446Z,1120.00
2022-12-08T08:38:53.445Z,996.00
2022-12-08T08:39:53.422Z,1128.00
2022-12-08T08:40:53.425Z,1228.00
2022-12-08T08:41:53.386Z,1132.00
2022-12-08T08:42:53.379Z,1072.00
2022-12-08T08:43:53.447Z,1036.00
2022-12-08T08:44:53.358Z,1048.00
2022-12-08T08:45:53.389Z,1108.00
2022-12-08T08:46:53.438Z,1144.00
2022-12-08T08:47:53.335Z,1124.00
2022-12-08T08:48:53.338Z,1152.00
2022-12-08T08:49:53.319Z,1212.00
2022-12-08T08:50:53.316Z,1240.00
2022-12-08T08:51:53.300Z,1232.00
2022-12-08T08:52:53.264Z,1212.00
2022-12-08T08:53:53.268Z,1200.00
2022-12-08T08:54:53.257Z,1216.00
2022-12-08T08:55:53.222Z,1240.00
2022-12-08T08:56:53.219Z,1268.00
2022-12-08T08:57:53.202Z,1276.00
2022-12-08T08:58:53.218Z,1252.00
2022-12-08T08:59:53.205Z,1264.00
2022-12-08T09:00:53.175Z,1300.00
2022-12-08T09:01:53.213Z,1316.00
2022-12-08T09:02:53.165Z,1376.00
2022-12-08T09:03:53.178Z,1432.00
2022-12-08T09:04:53.275Z,1420.00
2022-12-08T09:05:53.177Z,1392.00
2022-12-08T09:06:53.127Z,1456.00
2022-12-08T09:07:53.131Z,1532.00
2022-12-08T09:08:53.119Z,1600.00
2022-12-08T09:09:55.770Z,1612.00
2022-12-08T09:10:54.058Z,1552.00
2022-12-08T09:11:53.074Z,1544.00
2022-12-08T09:12:53.042Z,1500.00
2022-12-08T09:13:53.027Z,1496.00
2022-12-08T09:14:53.021Z,1432.00
2022-12-08T09:15:53.047Z,1376.00
2022-12-08T09:16:53.006Z,1300.00
2022-12-08T09:17:53.006Z,1108.00
2022-12-08T09:18:53.011Z,888.00
2022-12-08T09:19:52.965Z,708.00
2022-12-08T09:20:52.999Z,684.00
2022-12-08T09:21:52.944Z,696.00
2022-12-08T09:22:52.951Z,660.00
2022-12-08T09:23:52.914Z,688.00
2022-12-08T09:24:52.912Z,700.00
2022-12-08T09:25:52.919Z,704.00
2022-12-08T09:26:52.888Z,696.00
2022-12-08T09:27:52.874Z,700.00
2022-12-08T09:28:52.870Z,708.00
2022-12-08T09:29:52.854Z,732.00
2022-12-08T09:30:52.929Z,792.00
2022-12-08T09:31:52.990Z,852.00
2022-12-08T09:32:52.818Z,876.00
2022-12-08T09:33:52.804Z,976.00
2022-12-08T09:34:52.799Z,1056.00
2022-12-08T09:35:52.807Z,1064.00
2022-12-08T09:36:52.801Z,1076.00
2022-12-08T09:37:52.778Z,1032.00
2022-12-08T09:38:52.787Z,1036.00
2022-12-08T09:39:52.737Z,1184.00
2022-12-08T09:40:52.742Z,1192.00
2022-12-08T09:41:52.775Z,996.00
2022-12-08T09:42:52.714Z,904.00
2022-12-08T09:43:52.733Z,1000.00
2022-12-08T09:44:52.685Z,1148.00
2022-12-08T09:45:52.679Z,1188.00
2022-12-08T09:46:52.832Z,1220.00
2022-12-08T09:47:52.648Z,1288.00
2022-12-08T09:48:52.638Z,1392.00
2022-12-08T09:49:52.670Z,1504.00
2022-12-08T09:50:52.645Z,1664.00
2022-12-08T09:51:52.610Z,1732.00
2022-12-08T09:52:52.619Z,1592.00
2022-12-08T09:53:52.579Z,1496.00
2022-12-08T09:54:52.611Z,1432.00
2022-12-08T09:55:52.579Z,1404.00
2022-12-08T09:56:52.551Z,1408.00
2022-12-08T09:57:56.281Z,1384.00
2022-12-08T09:58:52.555Z,1260.00
2022-12-08T09:59:52.515Z,1160.00
2022-12-08T10:00:52.543Z,1192.00
2022-12-08T10:01:52.538Z,1124.00
2022-12-08T10:02:52.485Z,1040.00
2022-12-08T10:03:52.497Z,1028.00
2022-12-08T10:04:52.525Z,1088.00
2022-12-08T10:05:52.451Z,1188.00
2022-12-08T10:06:52.443Z,1216.00
2022-12-08T10:07:52.492Z,1284.00
2022-12-08T10:08:52.423Z,1224.00
2022-12-08T10:09:52.404Z,1316.00
2022-12-08T10:10:52.433Z,1364.00
2022-12-08T10:11:52.380Z,1296.00
2022-12-08T10:12:52.393Z,1252.00
2022-12-08T10:13:52.360Z,1368.00
2022-12-08T10:14:52.356Z,1508.00
2022-12-08T10:15:52.419Z,1448.00
2022-12-08T10:16:52.419Z,1424.00
2022-12-08T10:17:52.316Z,1280.00
2022-12-08T10:18:52.298Z,1216.00
2022-12-08T10:19:52.296Z,1192.00
2022-12-08T10:20:52.306Z,1192.00
2022-12-08T10:21:52.291Z,1104.00
2022-12-08T10:22:52.271Z,1136.00
2022-12-08T10:23:52.284Z,1112.00
2022-12-08T10:24:52.241Z,1132.00
2022-12-08T10:25:52.232Z,1244.00
2022-12-08T10:26:52.232Z,1420.00
2022-12-08T10:27:52.208Z,1296.00
2022-12-08T10:28:52.192Z,1268.00
2022-12-08T10:29:52.199Z,1308.00
2022-12-08T10:30:52.171Z,1416.00
2022-12-08T10:31:52.276Z,1532.00
2022-12-08T10:32:52.149Z,1428.00
2022-12-08T10:33:52.141Z,1324.00
2022-12-08T10:34:56.171Z,1220.00
2022-12-08T10:35:52.112Z,1016.00
2022-12-08T10:36:52.112Z,1180.00
2022-12-08T10:37:52.106Z,1260.00
2022-12-08T10:38:52.074Z,1248.00
2022-12-08T10:39:52.152Z,1240.00
2022-12-08T10:40:52.076Z,1392.00
2022-12-08T10:41:52.043Z,1524.00
2022-12-08T10:42:52.064Z,1608.00
2022-12-08T10:43:52.020Z,1568.00
2022-12-08T10:44:52.043Z,1472.00
2022-12-08T10:45:52.005Z,1472.00
2022-12-08T10:46:52.132Z,1448.00
2022-12-08T10:47:55.375Z,1448.00
2022-12-08T10:48:51.970Z,1364.00
2022-12-08T10:49:51.956Z,1288.00
2022-12-08T10:50:51.953Z,1324.00
2022-12-08T10:51:51.932Z,1292.00
2022-12-08T10:52:51.978Z,1224.00
2022-12-08T10:53:51.914Z,1248.00
2022-12-08T10:54:51.997Z,1348.00
2022-12-08T10:55:51.889Z,1328.00
2022-12-08T10:56:51.886Z,1320.00
2022-12-08T10:57:51.869Z,1472.00
2022-12-08T10:58:51.978Z,1472.00
2022-12-08T10:59:51.857Z,1308.00
2022-12-08T11:00:52.103Z,1404.00
2022-12-08T11:01:51.995Z,1304.00
2022-12-08T11:02:51.982Z,1344.00
2022-12-08T11:03:51.816Z,1508.00
2022-12-08T11:04:51.812Z,1540.00
2022-12-08T11:05:51.791Z,1440.00
2022-12-08T11:06:51.831Z,1308.00
2022-12-08T11:07:51.877Z,1260.00
2022-12-08T11:08:51.826Z,1308.00
2022-12-08T11:09:51.729Z,1408.00
2022-12-08T11:10:51.722Z,1432.00
2022-12-08T11:11:51.726Z,1328.00
2022-12-08T11:12:51.723Z,1480.00
2022-12-08T11:13:51.685Z,1536.00
2022-12-08T11:14:51.715Z,1648.00
2022-12-08T11:15:51.665Z,1672.00
2022-12-08T11:16:51.771Z,1724.00
2022-12-08T11:17:57.390Z,1820.00
2022-12-08T11:18:52.629Z,1752.00
2022-12-08T11:19:51.620Z,1800.00
2022-12-08T11:20:51.615Z,1476.00
2022-12-08T11:21:51.605Z,1460.00
2022-12-08T11:22:51.607Z,1452.00
2022-12-08T11:23:51.578Z,1416.00
2022-12-08T11:24:51.603Z,1348.00
2022-12-08T11:25:51.555Z,1256.00
2022-12-08T11:26:51.544Z,1060.00
2022-12-08T11:27:51.546Z,1004.00
2022-12-08T11:28:51.528Z,916.00
2022-12-08T11:29:51.503Z,960.00
2022-12-08T11:30:51.511Z,1016.00
2022-12-08T11:31:51.630Z,1060.00
2022-12-08T11:32:51.475Z,1052.00
2022-12-08T11:33:51.484Z,1132.00
2022-12-08T11:34:51.456Z,1164.00
2022-12-08T11:35:51.436Z,1188.00
2022-12-08T11:36:51.430Z,1104.00
2022-12-08T11:37:51.439Z,1112.00
2022-12-08T11:38:51.430Z,1064.00
2022-12-08T11:39:51.393Z,936.00
2022-12-08T11:40:51.382Z,948.00
2022-12-08T11:41:51.398Z,920.00
2022-12-08T11:42:51.397Z,932.00
2022-12-08T11:43:51.368Z,960.00
2022-12-08T11:44:51.369Z,936.00
2022-12-08T11:45:51.423Z,940.00
2022-12-08T11:46:51.346Z,940.00
2022-12-08T11:47:55.749Z,876.00
2022-12-08T11:48:51.295Z,872.00
2022-12-08T11:49:51.305Z,912.00
2022-12-08T11:50:51.282Z,1100.00
2022-12-08T11:51:51.272Z,1084.00
2022-12-08T11:52:51.297Z,1044.00
2022-12-08T11:53:51.254Z,1000.00
2022-12-08T11:54:51.261Z,992.00
2022-12-08T11:55:51.216Z,944.00
2022-12-08T11:56:51.213Z,968.00
2022-12-08T11:57:51.247Z,860.00
2022-12-08T11:58:51.194Z,784.00
2022-12-08T11:59:51.200Z,808.00
2022-12-08T12:00:51.181Z,736.00
2022-12-08T12:01:51.182Z,700.00
2022-12-08T12:02:51.179Z,748.00
2022-12-08T12:03:51.148Z,796.00
2022-12-08T12:04:51.131Z,776.00
2022-12-08T12:06:37.705Z,696.00
2022-12-08T12:06:55.685Z,564.00
2022-12-08T12:07:51.139Z,420.00
2022-12-08T12:08:51.095Z,472.00
2022-12-08T12:09:51.076Z,696.00
2022-12-08T12:10:51.040Z,836.00
2022-12-08T12:11:51.041Z,844.00
2022-12-08T12:12:51.024Z,784.00
2022-12-08T12:13:51.030Z,812.00
2022-12-08T12:14:50.998Z,900.00
2022-12-08T12:15:50.987Z,1004.00
2022-12-08T12:16:51.093Z,1036.00
2022-12-08T12:17:50.963Z,1084.00
2022-12-08T12:18:50.981Z,1148.00
2022-12-08T12:19:50.975Z,1100.00
2022-12-08T12:20:50.934Z,1044.00
2022-12-08T12:21:50.920Z,1068.00
2022-12-08T12:22:50.913Z,1168.00
2022-12-08T12:23:50.898Z,1236.00
2022-12-08T12:24:50.895Z,1324.00
2022-12-08T12:25:50.899Z,1288.00
2022-12-08T12:26:50.865Z,1292.00
2022-12-08T12:27:50.857Z,1280.00
2022-12-08T12:28:50.853Z,1316.00
2022-12-08T12:29:55.595Z,1496.00
2022-12-08T12:30:51.857Z,1608.00
2022-12-08T12:31:50.808Z,1608.00
2022-12-08T12:32:50.807Z,1596.00
2022-12-08T12:33:50.786Z,1604.00
2022-12-08T12:34:50.813Z,1648.00
2022-12-08T12:35:50.764Z,1736.00
2022-12-08T12:36:50.770Z,1812.00
2022-12-08T12:37:50.771Z,1860.00
2022-12-08T12:38:50.756Z,1904.00
2022-12-08T12:39:50.713Z,1856.00
2022-12-08T12:40:50.710Z,1796.00
2022-12-08T12:41:50.726Z,1736.00
2022-12-08T12:42:50.696Z,1720.00
2022-12-08T12:43:50.706Z,1696.00
2022-12-08T12:44:50.660Z,1708.00
2022-12-08T12:45:50.728Z,1768.00
2022-12-08T12:46:50.677Z,1800.00
2022-12-08T12:47:55.878Z,1788.00
2022-12-08T12:48:51.639Z,1784.00
2022-12-08T12:49:50.607Z,1756.00
2022-12-08T12:50:50.614Z,1732.00
2022-12-08T12:51:50.605Z,1736.00
2022-12-08T12:52:50.574Z,1720.00
2022-12-08T12:53:50.569Z,1692.00
2022-12-08T12:54:50.574Z,1648.00